createdAt,value
2022-08-11T00:01:16.208Z,101976.91
2022-08-11T00:03:48.255Z,101979.50
2022-08-11T00:06:26.132Z,101975.09
2022-08-11T00:08:55.844Z,101968.94
2022-08-11T00:11:33.962Z,101971.56
2022-08-11T00:14:04.555Z,101975.97
2022-08-11T00:16:34.880Z,101976.88
2022-08-11T00:19:04.020Z,101970.69
2022-08-11T00:22:03.919Z,101985.63
2022-08-11T00:24:51.712Z,101983.84
2022-08-11T00:27:22.295Z,101982.03
2022-08-11T00:29:55.075Z,101982.88
2022-08-11T00:32:25.346Z,101986.41
2022-08-11T00:35:53.627Z,101974.91
2022-08-11T00:37:50.427Z,101978.41
2022-08-11T00:40:26.479Z,101971.38
2022-08-11T00:43:02.995Z,101978.41
2022-08-11T00:45:38.273Z,101978.38
2022-08-11T00:48:16.342Z,101973.97
2022-08-11T00:50:56.655Z,101980.06
2022-08-11T00:53:46.772Z,101985.31
2022-08-11T00:56:38.295Z,101983.53
2022-08-11T00:59:37.033Z,101978.22
2022-08-11T01:02:16.696Z,101986.13
2022-08-11T01:05:24.186Z,101992.22
2022-08-11T01:08:25.804Z,101989.59
2022-08-11T01:11:16.171Z,101986.13
2022-08-11T01:14:17.025Z,101992.22
2022-08-11T01:17:21.561Z,101981.59
2022-08-11T01:20:47.464Z,101980.69
2022-08-11T01:23:26.994Z,101986.81
2022-08-11T01:26:30.833Z,101990.34
2022-08-11T01:29:38.133Z,101987.72
2022-08-11T01:32:34.216Z,101985.06
2022-08-11T01:35:28.944Z,101991.22
2022-08-11T01:38:15.659Z,101986.78
2022-08-11T01:41:15.638Z,101992.00
2022-08-11T01:44:30.992Z,101984.91
2022-08-11T01:47:34.611Z,101980.47
2022-08-11T01:50:15.320Z,101986.59
2022-08-11T01:52:59.806Z,101980.41
2022-08-11T01:55:33.191Z,101984.72
2022-08-11T01:58:09.902Z,101986.41
2022-08-11T02:01:05.081Z,101988.16
2022-08-11T02:03:45.688Z,101987.22
2022-08-11T02:06:47.550Z,101976.59
2022-08-11T02:09:25.827Z,101967.81
2022-08-11T02:11:59.828Z,101973.91
2022-08-11T02:14:39.100Z,101972.16
2022-08-11T02:17:20.304Z,101973.03
2022-08-11T02:20:13.936Z,101975.63
2022-08-11T02:23:11.308Z,101974.72
2022-08-11T02:25:47.543Z,101975.56
2022-08-11T02:28:28.880Z,101976.47
2022-08-11T02:32:05.151Z,101970.25
2022-08-11T02:34:19.232Z,101970.25
2022-08-11T02:36:56.424Z,101974.72
2022-08-11T02:39:39.319Z,101970.34
2022-08-11T02:42:32.617Z,101968.47
2022-08-11T02:45:20.034Z,101970.16
2022-08-11T02:48:14.360Z,101963.94
2022-08-11T02:50:51.081Z,101963.03
2022-08-11T02:53:29.592Z,101968.22
2022-08-11T02:56:09.659Z,101967.28
2022-08-11T02:58:45.325Z,101965.50
2022-08-11T03:01:21.077Z,101964.59
2022-08-11T03:03:58.844Z,101968.06
2022-08-11T03:06:38.605Z,101968.03
2022-08-11T03:09:15.083Z,101969.81
2022-08-11T03:12:12.119Z,101969.06
2022-08-11T03:15:08.023Z,101954.09
2022-08-11T03:17:43.099Z,101968.25
2022-08-11T03:20:23.104Z,101970.00
2022-08-11T03:23:02.581Z,101957.75
2022-08-11T03:25:37.754Z,101963.03
2022-08-11T03:28:24.595Z,101969.16
2022-08-11T03:31:02.623Z,101970.94
2022-08-11T03:34:01.508Z,101968.34
2022-08-11T03:37:17.531Z,101966.47
2022-08-11T03:39:58.921Z,101968.19
2022-08-11T03:42:33.297Z,101976.09
2022-08-11T03:45:16.108Z,101971.75
2022-08-11T03:48:09.873Z,101978.75
2022-08-11T03:50:56.513Z,101974.28
2022-08-11T03:53:51.452Z,101973.50
2022-08-11T03:56:53.465Z,101966.50
2022-08-11T03:59:56.485Z,101963.88
2022-08-11T04:02:53.792Z,101969.22
2022-08-11T04:06:11.902Z,101971.88
2022-08-11T04:09:07.603Z,101964.00
2022-08-11T04:12:02.299Z,101968.41
2022-08-11T04:15:06.160Z,101974.53
2022-08-11T04:18:19.183Z,101975.41
2022-08-11T04:21:26.848Z,101973.66
2022-08-11T04:24:37.895Z,101972.78
2022-08-11T04:27:37.297Z,101971.88
2022-08-11T04:30:11.964Z,101977.16
2022-08-11T04:33:28.009Z,101980.56
2022-08-11T04:36:41.236Z,101981.34
2022-08-11T04:39:20.552Z,101984.88
2022-08-11T04:42:32.675Z,101979.63
2022-08-11T04:45:28.671Z,101975.13
2022-08-11T04:48:36.862Z,101976.72
2022-08-11T04:51:47.582Z,101976.63
2022-08-11T04:54:45.216Z,101978.31
2022-08-11T04:57:41.101Z,101973.81
2022-08-11T05:00:29.264Z,101980.75
2022-08-11T05:03:33.513Z,101982.59
2022-08-11T05:06:36.240Z,101986.22
2022-08-11T05:09:46.747Z,101984.41
2022-08-11T05:12:35.544Z,101984.34
2022-08-11T05:15:22.704Z,101983.53
2022-08-11T05:18:17.145Z,101989.72
2022-08-11T05:21:08.461Z,101990.63
2022-08-11T05:23:58.597Z,101994.19
2022-08-11T05:26:49.184Z,101990.69
2022-08-11T05:29:58.745Z,101990.75
2022-08-11T05:32:52.200Z,101995.16
2022-08-11T05:36:00.650Z,101997.03
2022-08-11T05:38:39.889Z,102004.06
2022-08-11T05:41:26.519Z,101998.00
2022-08-11T05:44:20.474Z,101993.69
2022-08-11T05:47:09.755Z,102001.63
2022-08-11T05:49:57.815Z,101999.94
2022-08-11T05:52:49.246Z,102010.56
2022-08-11T05:55:53.994Z,102002.75
2022-08-11T05:58:39.779Z,102007.16
2022-08-11T06:01:11.882Z,102016.00
2022-08-11T06:03:59.762Z,102007.25
2022-08-11T06:06:29.317Z,102006.41
2022-08-11T06:08:59.225Z,102017.88
2022-08-11T06:11:43.615Z,102010.03
2022-08-11T06:14:15.492Z,102010.06
2022-08-11T06:16:48.302Z,102010.16
2022-08-11T06:19:21.432Z,102017.25
2022-08-11T06:21:52.155Z,102021.69
2022-08-11T06:24:20.909Z,102020.03
2022-08-11T06:29:55.379Z,102025.41
2022-08-11T06:32:29.619Z,102021.06
2022-08-11T06:35:23.047Z,102019.31
2022-08-11T06:38:09.066Z,102030.84
2022-08-11T06:40:44.596Z,102026.47
2022-08-11T06:43:21.121Z,102022.13
2022-08-11T06:45:56.383Z,102017.72
2022-08-11T06:48:26.460Z,102018.63
2022-08-11T06:51:14.866Z,102019.56
2022-08-11T06:53:57.647Z,102018.72
2022-08-11T06:57:29.353Z,102012.56
2022-08-11T07:00:02.751Z,102025.00
2022-08-11T07:02:34.820Z,102021.53
2022-08-11T07:05:08.465Z,102018.03
2022-08-11T07:08:33.538Z,102018.97
2022-08-11T07:11:39.650Z,102010.22
2022-08-11T07:14:38.474Z,102010.25
2022-08-11T07:17:12.482Z,102008.53
2022-08-11T07:20:01.793Z,102012.06
2022-08-11T07:23:05.563Z,101999.75
2022-08-11T07:25:57.940Z,102001.56
2022-08-11T07:28:46.732Z,101991.88
2022-08-11T07:31:18.084Z,101991.91
2022-08-11T07:34:05.717Z,101997.22
2022-08-11T07:36:40.949Z,101993.69
2022-08-11T07:39:16.747Z,101992.81
2022-08-11T07:41:48.192Z,101989.31
2022-08-11T07:44:17.452Z,101996.34
2022-08-11T07:47:06.236Z,101994.59
2022-08-11T07:49:55.133Z,101996.34
2022-08-11T07:52:34.117Z,101997.25
2022-08-11T07:55:05.261Z,101998.97
2022-08-11T07:58:14.993Z,101992.81
2022-08-11T08:01:10.006Z,101995.41
2022-08-11T08:03:58.462Z,101995.41
2022-08-11T08:06:46.129Z,101989.19
2022-08-11T08:09:34.279Z,101992.69
2022-08-11T08:12:23.095Z,101994.41
2022-08-11T08:15:12.424Z,101989.97
2022-08-11T08:18:20.449Z,101992.59
2022-08-11T08:20:49.925Z,101984.59
2022-08-11T08:23:33.032Z,101988.09
2022-08-11T08:26:04.757Z,101992.47
2022-08-11T08:28:34.929Z,101988.03
2022-08-11T08:31:03.803Z,101972.03
2022-08-11T08:33:33.654Z,101981.72
2022-08-11T08:36:15.338Z,101988.72
2022-08-11T08:38:48.673Z,101983.34
2022-08-11T08:41:23.376Z,101977.97
2022-08-11T08:44:37.250Z,101974.41
2022-08-11T08:47:01.617Z,101972.56
2022-08-11T08:49:40.681Z,101980.44
2022-08-11T08:52:30.762Z,101981.25
2022-08-11T08:55:05.576Z,101979.38
2022-08-11T08:57:38.852Z,101981.09
2022-08-11T09:00:13.847Z,101975.72
2022-08-11T09:02:47.089Z,101969.44
2022-08-11T09:05:18.693Z,101976.41
2022-08-11T09:07:51.232Z,101963.94
2022-08-11T09:10:21.399Z,101963.00
2022-08-11T09:12:51.617Z,101963.88
2022-08-11T09:15:22.349Z,101967.34
2022-08-11T09:17:55.076Z,101975.25
2022-08-11T09:20:27.531Z,101966.28
2022-08-11T09:24:06.733Z,101964.44
2022-08-11T09:26:30.951Z,101964.34
2022-08-11T09:29:01.418Z,101962.50
2022-08-11T09:31:38.700Z,101970.38
2022-08-11T09:34:11.868Z,101962.25
2022-08-11T09:36:59.098Z,101957.56
2022-08-11T09:39:46.880Z,101953.66
2022-08-11T09:42:23.523Z,101946.44
2022-08-11T09:44:53.921Z,101949.03
2022-08-11T09:47:25.603Z,101952.50
2022-08-11T09:50:00.615Z,101953.94
2022-08-11T09:52:32.054Z,101946.63
2022-08-11T09:55:02.290Z,101948.13
2022-08-11T09:57:48.294Z,101946.03
2022-08-11T10:00:17.829Z,101935.25
2022-08-11T10:02:49.192Z,101944.06
2022-08-11T10:05:38.340Z,101937.50
2022-08-11T10:08:08.573Z,101934.38
2022-08-11T10:10:39.106Z,101932.41
2022-08-11T10:14:30.248Z,101924.28
2022-08-11T10:16:15.909Z,101932.13
2022-08-11T10:18:53.049Z,101928.56
2022-08-11T10:21:31.332Z,101921.47
2022-08-11T10:24:25.120Z,101920.66
2022-08-11T10:27:00.263Z,101917.09
2022-08-11T10:29:51.212Z,101915.44
2022-08-11T10:32:49.363Z,101916.00
2022-08-11T10:35:27.563Z,101905.56
2022-08-11T10:38:06.492Z,101903.13
2022-08-11T10:40:40.429Z,101906.03
2022-08-11T10:43:13.711Z,101905.50
2022-08-11T10:46:03.322Z,101906.09
2022-08-11T10:48:37.965Z,101901.03
2022-08-11T10:51:14.628Z,101900.28
2022-08-11T10:54:05.400Z,101883.09
2022-08-11T10:56:54.265Z,101889.16
2022-08-11T10:59:24.810Z,101879.47
2022-08-11T11:01:54.636Z,101879.09
2022-08-11T11:04:28.806Z,101879.75
2022-08-11T11:07:13.856Z,101881.78
2022-08-11T11:09:49.068Z,101872.72
2022-08-11T11:12:42.212Z,101876.50
2022-08-11T11:15:30.686Z,101879.28
2022-08-11T11:18:04.719Z,101878.31
2022-08-11T11:20:43.706Z,101876.34
2022-08-11T11:23:19.982Z,101865.72
2022-08-11T11:26:16.831Z,101870.16
2022-08-11T11:29:24.888Z,101864.28
2022-08-11T11:32:18.138Z,101865.72
2022-08-11T11:35:12.307Z,101864.28
2022-08-11T11:38:04.398Z,101858.34
2022-08-11T11:40:32.376Z,101854.97
2022-08-11T11:43:02.843Z,101850.47
2022-08-11T11:45:31.609Z,101852.38
2022-08-11T11:48:02.116Z,101852.41
2022-08-11T11:50:33.110Z,101848.28
2022-08-11T11:53:03.159Z,101847.84
2022-08-11T11:55:32.979Z,101843.16
2022-08-11T11:58:22.232Z,101843.06
2022-08-11T12:01:09.540Z,101842.16
2022-08-11T12:03:39.496Z,101835.88
2022-08-11T12:06:12.169Z,101837.50
2022-08-11T12:08:42.077Z,101840.47
2022-08-11T12:11:30.860Z,101834.63
2022-08-11T12:14:03.690Z,101831.69
2022-08-11T12:16:41.223Z,101825.44
2022-08-11T12:19:12.594Z,101820.19
2022-08-11T12:22:03.183Z,101814.50
2022-08-11T12:24:51.278Z,101811.78
2022-08-11T12:27:25.297Z,101806.72
2022-08-11T12:29:59.102Z,101814.00
2022-08-11T12:32:28.926Z,101820.63
2022-08-11T12:34:58.185Z,101810.16
2022-08-11T12:37:32.172Z,101809.44
2022-08-11T12:40:42.133Z,101792.53
2022-08-11T12:43:38.592Z,101802.50
2022-08-11T12:46:11.395Z,101798.19
2022-08-11T12:49:03.895Z,101790.81
2022-08-11T12:52:06.815Z,101787.19
2022-08-11T12:54:51.652Z,101780.84
2022-08-11T12:57:44.341Z,101783.72
2022-08-11T13:00:31.562Z,101780.91
2022-08-11T13:03:20.348Z,101779.00
2022-08-11T13:05:50.469Z,101775.94
2022-08-11T13:08:19.399Z,101762.66
2022-08-11T13:11:08.675Z,101760.97
2022-08-11T13:13:55.647Z,101759.81
2022-08-11T13:16:29.089Z,101754.94
2022-08-11T13:19:01.027Z,101761.56
2022-08-11T13:21:30.598Z,101759.31
2022-08-11T13:24:02.735Z,101753.81
2022-08-11T13:26:46.796Z,101749.75
2022-08-11T13:29:20.777Z,101749.09
2022-08-11T13:31:50.237Z,101751.31
2022-08-11T13:34:21.725Z,101753.03
2022-08-11T13:36:52.863Z,101752.03
2022-08-11T13:39:24.072Z,101736.03
2022-08-11T13:41:55.232Z,101737.59
2022-08-11T13:44:27.537Z,101734.13
2022-08-11T13:46:58.731Z,101728.50
2022-08-11T13:49:29.870Z,101735.06
2022-08-11T13:51:59.632Z,101731.41
2022-08-11T13:54:31.100Z,101736.25
2022-08-11T13:57:08.246Z,101718.97
2022-08-11T13:59:45.315Z,101725.22
2022-08-11T14:02:30.259Z,101719.28
2022-08-11T14:05:07.024Z,101719.03
2022-08-11T14:07:39.950Z,101716.22
2022-08-11T14:10:12.407Z,101716.38
2022-08-11T14:13:01.464Z,101709.75
2022-08-11T14:15:34.143Z,101715.88
2022-08-11T14:18:06.755Z,101713.38
2022-08-11T14:20:59.462Z,101706.34
2022-08-11T14:23:32.395Z,101704.63
2022-08-11T14:26:19.131Z,101715.38
2022-08-11T14:28:48.609Z,101705.88
2022-08-11T14:31:17.593Z,101702.75
2022-08-11T14:34:00.200Z,101704.69
2022-08-11T14:36:35.054Z,101695.81
2022-08-11T14:39:06.933Z,101696.44
2022-08-11T14:42:10.484Z,101695.19
2022-08-11T14:45:03.116Z,101697.16
2022-08-11T14:47:34.928Z,101695.81
2022-08-11T14:50:11.108Z,101689.13
2022-08-11T14:52:47.259Z,101696.19
2022-08-11T14:55:34.198Z,101694.84
2022-08-11T14:58:03.551Z,101686.41
2022-08-11T15:00:35.291Z,101685.38
2022-08-11T15:03:10.681Z,101682.75
2022-08-11T15:05:45.088Z,101679.03
2022-08-11T15:08:47.245Z,101679.53
2022-08-11T15:11:35.744Z,101677.31
2022-08-11T15:14:07.765Z,101670.84
2022-08-11T15:16:55.966Z,101673.16
2022-08-11T15:19:36.672Z,101676.59
2022-08-11T15:22:28.730Z,101666.09
2022-08-11T15:25:00.354Z,101661.75
2022-08-11T15:27:48.307Z,101659.84
2022-08-11T15:30:43.592Z,101658.50
2022-08-11T15:33:33.165Z,101657.94
2022-08-11T15:36:21.763Z,101656.28
2022-08-11T15:38:55.784Z,101653.34
2022-08-11T15:41:56.409Z,101665.22
2022-08-11T15:45:03.934Z,101661.81
2022-08-11T15:47:38.976Z,101660.16
2022-08-11T15:50:15.210Z,101655.03
2022-08-11T15:52:51.112Z,101658.72
2022-08-11T15:55:20.629Z,101653.34
2022-08-11T15:58:11.904Z,101648.09
2022-08-11T16:01:03.736Z,101652.41
2022-08-11T16:04:07.239Z,101642.84
2022-08-11T16:06:46.295Z,101645.41
2022-08-11T16:09:19.252Z,101641.69
2022-08-11T16:11:49.582Z,101636.47
2022-08-11T16:14:38.414Z,101643.59
2022-08-11T16:17:11.036Z,101632.44
2022-08-11T16:19:42.567Z,101636.09
2022-08-11T16:22:14.020Z,101640.38
2022-08-11T16:27:04.681Z,101636.13
2022-08-11T16:27:38.894Z,101634.94
2022-08-11T16:30:10.380Z,101639.81
2022-08-11T16:32:43.102Z,101630.69
2022-08-11T16:35:33.445Z,101629.41
2022-08-11T16:38:22.949Z,101634.31
2022-08-11T16:40:53.872Z,101632.13
2022-08-11T16:43:43.024Z,101642.09
2022-08-11T16:46:33.889Z,101631.00
2022-08-11T16:49:04.619Z,101632.06
2022-08-11T16:51:33.724Z,101629.56
2022-08-11T16:54:05.891Z,101630.53
2022-08-11T16:56:38.797Z,101631.53
2022-08-11T16:59:15.160Z,101635.50
2022-08-11T17:01:53.853Z,101630.38
2022-08-11T17:04:48.577Z,101637.56
2022-08-11T17:07:41.721Z,101628.84
2022-08-11T17:10:52.510Z,101630.91
2022-08-11T17:13:27.064Z,101634.53
2022-08-11T17:16:12.082Z,101629.41
2022-08-11T17:19:06.481Z,101628.00
2022-08-11T17:22:00.110Z,101626.41
2022-08-11T17:24:29.242Z,101623.81
2022-08-11T17:26:58.743Z,101628.38
2022-08-11T17:29:31.983Z,101623.34
2022-08-11T17:32:21.380Z,101632.50
2022-08-11T17:35:11.390Z,101626.50
2022-08-11T17:37:41.019Z,101628.47
2022-08-11T17:40:12.427Z,101627.69
2022-08-11T17:43:00.078Z,101636.78
2022-08-11T17:45:47.146Z,101628.09
2022-08-11T17:48:34.113Z,101628.28
2022-08-11T17:51:07.429Z,101626.59
2022-08-11T17:54:02.156Z,101636.53
2022-08-11T17:57:04.331Z,101632.19
2022-08-11T17:59:53.241Z,101629.84
2022-08-11T18:02:43.740Z,101625.56
2022-08-11T18:05:13.805Z,101627.41
2022-08-11T18:08:03.752Z,101631.19
2022-08-11T18:10:52.338Z,101627.78
2022-08-11T18:13:41.787Z,101640.34
2022-08-11T18:16:28.790Z,101637.91
2022-08-11T18:19:14.695Z,101643.38
2022-08-11T18:22:14.160Z,101646.22
2022-08-11T18:25:08.834Z,101644.59
2022-08-11T18:27:59.033Z,101647.50
2022-08-11T18:30:46.416Z,101653.13
2022-08-11T18:36:46.274Z,101658.75
2022-08-11T18:39:33.786Z,101654.59
2022-08-11T18:42:29.654Z,101661.13
2022-08-11T18:45:19.998Z,101665.84
2022-08-11T18:48:09.340Z,101674.94
2022-08-11T18:51:30.362Z,101662.56
2022-08-11T18:54:10.998Z,101665.34
2022-08-11T18:56:58.002Z,101670.72
2022-08-11T18:59:47.308Z,101671.72
2022-08-11T19:02:49.546Z,101671.94
2022-08-11T19:06:05.226Z,101679.44
2022-08-11T19:08:47.971Z,101674.47
2022-08-11T19:11:34.229Z,101674.75
2022-08-11T19:14:28.762Z,101674.03
2022-08-11T19:17:43.779Z,101676.06
2022-08-11T19:20:28.310Z,101686.06
2022-08-11T19:23:16.108Z,101679.09
2022-08-11T19:26:03.589Z,101688.22
2022-08-11T19:28:51.985Z,101682.13
2022-08-11T19:31:43.845Z,101676.09
2022-08-11T19:34:34.597Z,101679.78
2022-08-11T19:37:24.666Z,101683.38
2022-08-11T19:40:12.258Z,101685.31
2022-08-11T19:43:00.354Z,101682.72
2022-08-11T19:45:52.197Z,101678.44
2022-08-11T19:48:40.632Z,101676.81
2022-08-11T19:51:29.742Z,101670.72
2022-08-11T19:54:17.105Z,101675.22
2022-08-11T19:57:03.845Z,101679.75
2022-08-11T19:59:50.917Z,101677.16
2022-08-11T20:02:38.140Z,101673.63
2022-08-11T20:05:25.917Z,101674.59
2022-08-11T20:08:16.834Z,101674.63
2022-08-11T20:11:06.447Z,101676.50
2022-08-11T20:13:54.757Z,101680.97
2022-08-11T20:16:42.113Z,101677.50
2022-08-11T20:19:54.749Z,101676.66
2022-08-11T20:22:36.515Z,101688.22
2022-08-11T20:25:24.971Z,101682.94
2022-08-11T20:28:12.293Z,101683.00
2022-08-11T20:31:00.654Z,101688.38
2022-08-11T20:33:46.305Z,101694.66
2022-08-11T20:36:34.535Z,101703.50
2022-08-11T20:39:22.058Z,101696.53
2022-08-11T20:42:11.626Z,101695.69
2022-08-11T20:44:59.962Z,101693.06
2022-08-11T20:47:56.408Z,101696.66
2022-08-11T20:50:47.519Z,101701.16
2022-08-11T20:53:39.079Z,101702.09
2022-08-11T20:56:28.524Z,101711.88
2022-08-11T20:59:21.757Z,101711.88
2022-08-11T21:02:10.000Z,101711.88
2022-08-11T21:05:00.062Z,101711.00
2022-08-11T21:07:57.009Z,101719.94
2022-08-11T21:10:51.234Z,101716.41
2022-08-11T21:13:41.136Z,101726.13
2022-08-11T21:16:33.500Z,101724.28
2022-08-11T21:20:00.246Z,101724.16
2022-08-11T21:22:58.627Z,101719.69
2022-08-11T21:25:55.742Z,101722.34
2022-08-11T21:28:47.313Z,101727.72
2022-08-11T21:31:35.869Z,101734.91
2022-08-11T21:34:23.157Z,101727.94
2022-08-11T21:37:11.618Z,101727.22
2022-08-11T21:40:00.394Z,101735.34
2022-08-11T21:42:47.529Z,101738.00
2022-08-11T21:45:34.763Z,101741.56
2022-08-11T21:48:25.382Z,101737.16
2022-08-11T21:51:11.683Z,101736.25
2022-08-11T21:53:57.654Z,101735.38
2022-08-11T21:56:46.093Z,101741.50
2022-08-11T21:59:37.007Z,101740.69
2022-08-11T22:02:23.451Z,101735.38
2022-08-11T22:05:11.182Z,101730.94
2022-08-11T22:07:57.716Z,101731.94
2022-08-11T22:10:43.848Z,101742.72
2022-08-11T22:13:30.784Z,101735.75
2022-08-11T22:16:17.466Z,101734.97
2022-08-11T22:19:04.892Z,101729.78
2022-08-11T22:22:03.152Z,101731.59
2022-08-11T22:24:52.211Z,101733.47
2022-08-11T22:27:39.209Z,101728.16
2022-08-11T22:30:27.076Z,101718.44
2022-08-11T22:33:16.328Z,101726.50
2022-08-11T22:36:04.148Z,101725.72
2022-08-11T22:38:53.066Z,101730.22
2022-08-11T22:41:39.725Z,101731.16
2022-08-11T22:44:26.423Z,101730.31
2022-08-11T22:47:15.361Z,101732.06
2022-08-11T22:50:07.337Z,101731.16
2022-08-11T22:52:54.633Z,101732.06
2022-08-11T22:55:44.044Z,101734.69
2022-08-11T22:58:31.360Z,101736.44
2022-08-11T23:01:17.777Z,101742.66
2022-08-11T23:04:06.258Z,101738.34
2022-08-11T23:06:53.410Z,101741.94
2022-08-11T23:09:39.841Z,101742.84
2022-08-11T23:12:28.210Z,101750.00
2022-08-11T23:15:14.390Z,101748.28
2022-08-11T23:18:01.124Z,101741.25
2022-08-11T23:20:48.543Z,101753.66
2022-08-11T23:23:36.823Z,101745.69
2022-08-11T23:26:23.495Z,101743.88
2022-08-11T23:29:11.682Z,101743.84
2022-08-11T23:31:58.304Z,101750.88
2022-08-11T23:35:37.355Z,101744.66
2022-08-11T23:37:59.812Z,101755.28
2022-08-11T23:40:46.055Z,101744.72
2022-08-11T23:43:39.103Z,101752.66
2022-08-11T23:46:26.587Z,101750.88
2022-08-11T23:49:16.076Z,101747.38
2022-08-11T23:52:02.841Z,101736.81
2022-08-11T23:54:49.007Z,101743.88
2022-08-11T23:57:34.990Z,101751.84
